createdAt,value
2023-02-17T00:01:59.535Z,0.99
2023-02-17T00:05:53.038Z,1.06
2023-02-17T00:09:42.534Z,1.03
2023-02-17T00:13:36.361Z,0.94
2023-02-17T00:17:31.473Z,0.92
2023-02-17T00:21:25.035Z,0.93
2023-02-17T00:25:20.046Z,0.92
2023-02-17T00:29:13.675Z,0.94
2023-02-17T00:33:15.051Z,0.86
2023-02-17T00:37:08.877Z,0.79
2023-02-17T00:41:00.702Z,0.74
2023-02-17T00:44:53.968Z,0.67
2023-02-17T00:48:47.637Z,0.67
2023-02-17T00:52:37.180Z,0.72
2023-02-17T00:56:30.999Z,0.70
2023-02-17T01:00:01.173Z,0.68
2023-02-17T01:03:52.978Z,0.62
2023-02-17T01:07:47.169Z,0.66
2023-02-17T01:11:39.702Z,0.52
2023-02-17T01:15:31.191Z,0.51
2023-02-17T01:19:24.566Z,0.40
2023-02-17T01:23:22.641Z,0.38
2023-02-17T01:27:13.872Z,0.34
2023-02-17T01:31:11.698Z,0.28
2023-02-17T01:35:04.034Z,0.13
2023-02-17T01:39:02.042Z,0.10
2023-02-17T01:42:54.234Z,0.07
2023-02-17T01:46:47.590Z,0.04
2023-02-17T01:50:39.847Z,-0.03
2023-02-17T01:54:35.984Z,-0.09
2023-02-17T01:58:27.987Z,-0.16
2023-02-17T02:02:21.649Z,-0.23
2023-02-17T02:05:53.824Z,-0.29
2023-02-17T02:09:48.919Z,-0.35
2023-02-17T02:13:43.750Z,-0.28
2023-02-17T02:17:37.050Z,-0.29
2023-02-17T02:21:30.849Z,-0.22
2023-02-17T02:25:27.175Z,-0.31
2023-02-17T02:29:20.807Z,-0.30
2023-02-17T02:33:12.940Z,-0.29
2023-02-17T02:37:04.470Z,-0.29
2023-02-17T02:40:59.096Z,-0.29
2023-02-17T02:44:50.609Z,-0.20
2023-02-17T02:48:42.734Z,-0.20
2023-02-17T02:52:34.142Z,-0.26
2023-02-17T02:56:26.047Z,-0.31
2023-02-17T03:00:19.343Z,-0.29
2023-02-17T03:04:14.833Z,-0.31
2023-02-17T03:08:09.252Z,-0.24
2023-02-17T03:12:04.752Z,-0.14
2023-02-17T03:15:59.215Z,-0.06
2023-02-17T03:19:54.618Z,0.02
2023-02-17T03:23:47.790Z,0.15
2023-02-17T03:27:43.630Z,0.28
2023-02-17T03:31:37.190Z,0.38
2023-02-17T03:35:29.328Z,0.38
2023-02-17T03:39:20.400Z,0.34
2023-02-17T03:43:12.529Z,0.34
2023-02-17T03:47:04.025Z,0.14
2023-02-17T03:50:56.229Z,0.10
2023-02-17T03:54:58.742Z,0.01
2023-02-17T03:58:51.261Z,-0.09
2023-02-17T04:02:50.705Z,-0.16
2023-02-17T04:06:39.862Z,-0.18
2023-02-17T04:10:29.208Z,-0.09
2023-02-17T04:14:14.639Z,0.03
2023-02-17T04:18:05.865Z,0.15
2023-02-17T04:22:05.472Z,0.27
2023-02-17T04:26:05.989Z,0.44
2023-02-17T04:30:04.381Z,0.45
2023-02-17T04:34:03.818Z,0.69
2023-02-17T04:38:01.213Z,0.80
2023-02-17T04:42:00.991Z,0.86
2023-02-17T04:45:56.486Z,0.78
2023-02-17T04:49:42.077Z,0.92
2023-02-17T04:53:27.520Z,1.05
2023-02-17T04:57:13.216Z,1.08
2023-02-17T05:01:05.483Z,1.02
2023-02-17T05:05:04.956Z,1.16
2023-02-17T05:09:03.057Z,1.17
2023-02-17T05:13:02.910Z,1.17
2023-02-17T05:17:02.380Z,1.36
2023-02-17T05:21:00.280Z,1.42
2023-02-17T05:24:58.586Z,1.47
2023-02-17T05:28:44.040Z,1.51
2023-02-17T05:32:29.665Z,1.55
2023-02-17T05:36:15.022Z,1.62
2023-02-17T05:40:00.185Z,1.83
2023-02-17T05:43:49.499Z,1.97
2023-02-17T05:47:41.098Z,2.00
2023-02-17T05:51:33.547Z,2.01
2023-02-17T05:55:24.722Z,2.06
2023-02-17T05:59:25.098Z,2.08
2023-02-17T06:03:23.402Z,1.91
2023-02-17T06:07:24.068Z,1.98
2023-02-17T06:11:21.204Z,2.11
2023-02-17T06:15:21.116Z,2.19
2023-02-17T06:19:18.421Z,2.22
2023-02-17T06:23:17.980Z,2.28
2023-02-17T06:27:03.954Z,2.19
2023-02-17T06:30:49.148Z,2.14
2023-02-17T06:34:34.499Z,2.22
2023-02-17T06:38:19.747Z,2.30
2023-02-17T06:42:04.985Z,2.42
2023-02-17T06:45:51.491Z,2.50
2023-02-17T06:49:37.024Z,2.49
2023-02-17T06:53:38.089Z,2.57
2023-02-17T06:57:35.346Z,2.66
2023-02-17T07:01:35.285Z,2.67
2023-02-17T07:05:33.604Z,2.75
2023-02-17T07:09:34.069Z,2.83
2023-02-17T07:13:32.473Z,2.89
2023-02-17T07:17:32.171Z,2.92
2023-02-17T07:21:29.540Z,2.88
2023-02-17T07:25:30.217Z,3.04
2023-02-17T07:29:28.555Z,3.00
2023-02-17T07:33:28.160Z,3.07
2023-02-17T07:37:29.699Z,3.15
2023-02-17T07:41:30.265Z,3.41
2023-02-17T07:45:28.479Z,3.56
2023-02-17T07:49:29.301Z,3.64
2023-02-17T07:53:27.578Z,3.81
2023-02-17T07:57:28.275Z,3.98
2023-02-17T08:01:26.393Z,4.01
2023-02-17T08:05:29.526Z,4.00
2023-02-17T08:09:29.306Z,4.13
2023-02-17T08:13:25.385Z,4.18
2023-02-17T08:17:25.922Z,4.21
2023-02-17T08:21:21.399Z,4.30
2023-02-17T08:25:21.460Z,4.38
2023-02-17T08:29:19.847Z,4.43
2023-02-17T08:33:19.304Z,4.47
2023-02-17T08:37:15.454Z,4.58
2023-02-17T08:41:14.868Z,4.66
2023-02-17T08:45:11.651Z,4.82
2023-02-17T08:49:11.175Z,4.78
2023-02-17T08:53:06.838Z,4.78
2023-02-17T08:57:06.743Z,4.88
2023-02-17T09:01:02.732Z,4.96
2023-02-17T09:05:03.179Z,4.86
2023-02-17T09:08:59.653Z,4.91
2023-02-17T09:12:59.837Z,4.93
2023-02-17T09:16:55.712Z,4.97
2023-02-17T09:20:58.315Z,5.15
2023-02-17T09:24:53.425Z,5.28
2023-02-17T09:28:53.538Z,5.29
2023-02-17T09:32:49.474Z,5.23
2023-02-17T09:36:50.614Z,5.36
2023-02-17T09:40:46.845Z,5.62
2023-02-17T09:44:47.154Z,5.77
2023-02-17T09:48:44.072Z,5.75
2023-02-17T09:52:43.704Z,5.87
2023-02-17T09:56:39.843Z,6.01
2023-02-17T10:00:33.786Z,6.01
2023-02-17T10:04:29.077Z,6.01
2023-02-17T10:08:22.772Z,5.91
2023-02-17T10:12:14.924Z,6.05
2023-02-17T10:16:09.266Z,6.20
2023-02-17T10:20:09.660Z,5.98
2023-02-17T10:24:03.180Z,5.97
2023-02-17T10:27:58.429Z,6.08
2023-02-17T10:31:51.846Z,6.07
2023-02-17T10:35:24.613Z,6.06
2023-02-17T10:39:16.874Z,6.00
2023-02-17T10:43:10.421Z,6.03
2023-02-17T10:47:02.188Z,5.97
2023-02-17T10:50:57.477Z,6.04
2023-02-17T10:54:48.910Z,6.03
2023-02-17T10:58:43.328Z,5.96
2023-02-17T11:02:38.983Z,6.09
2023-02-17T11:06:30.847Z,6.15
2023-02-17T11:10:28.394Z,6.14
2023-02-17T11:14:20.970Z,6.20
2023-02-17T11:18:14.374Z,6.26
2023-02-17T11:22:05.615Z,6.23
2023-02-17T11:26:03.807Z,6.22
2023-02-17T11:29:55.654Z,6.18
2023-02-17T11:33:56.986Z,6.16
2023-02-17T11:37:51.555Z,6.12
2023-02-17T11:41:50.711Z,6.10
2023-02-17T11:45:42.128Z,6.05
2023-02-17T11:49:36.602Z,5.79
2023-02-17T11:52:33.592Z,5.75
2023-02-17T11:55:28.366Z,5.65
2023-02-17T11:58:44.850Z,5.60
2023-02-17T12:01:54.612Z,5.59
2023-02-17T12:05:02.102Z,5.59
2023-02-17T12:08:28.748Z,5.63
2023-02-17T12:11:32.379Z,5.63
2023-02-17T12:14:43.405Z,5.66
2023-02-17T12:18:05.189Z,5.63
2023-02-17T12:21:09.210Z,5.58
2023-02-17T12:24:24.371Z,5.49
2023-02-17T12:27:19.131Z,5.46
2023-02-17T12:30:17.361Z,5.53
2023-02-17T12:33:16.006Z,5.57
2023-02-17T12:36:06.827Z,5.73
2023-02-17T12:38:59.232Z,5.75
2023-02-17T12:41:54.064Z,5.74
2023-02-17T12:44:49.994Z,5.74
2023-02-17T12:47:46.593Z,5.76
2023-02-17T12:50:50.514Z,5.81
2023-02-17T12:53:53.013Z,5.79
2023-02-17T12:56:48.352Z,5.69
2023-02-17T12:59:45.066Z,5.65
2023-02-17T13:02:34.586Z,5.64
2023-02-17T13:05:27.004Z,5.58
2023-02-17T13:08:33.714Z,5.55
2023-02-17T13:11:31.688Z,5.47
2023-02-17T13:14:28.331Z,5.44
2023-02-17T13:17:31.329Z,5.39
2023-02-17T13:20:20.193Z,5.29
2023-02-17T13:23:12.236Z,5.28
2023-02-17T13:26:19.478Z,5.23
2023-02-17T13:29:32.355Z,5.25
2023-02-17T13:32:26.408Z,5.22
2023-02-17T13:35:29.540Z,5.18
2023-02-17T13:38:31.502Z,5.15
2023-02-17T13:41:20.299Z,5.12
2023-02-17T13:44:25.841Z,5.01
2023-02-17T13:47:17.347Z,4.96
2023-02-17T13:50:07.193Z,4.90
2023-02-17T13:52:56.271Z,4.81
2023-02-17T13:55:45.031Z,4.76
2023-02-17T13:58:38.936Z,4.76
2023-02-17T14:01:28.912Z,4.71
2023-02-17T14:04:38.207Z,4.66
2023-02-17T14:07:26.939Z,4.54
2023-02-17T14:10:19.248Z,4.52
2023-02-17T14:13:10.997Z,4.51
2023-02-17T14:16:00.310Z,4.50
2023-02-17T14:18:49.374Z,4.48
2023-02-17T14:21:43.944Z,4.48
2023-02-17T14:24:34.685Z,4.44
2023-02-17T14:27:23.765Z,4.39
2023-02-17T14:30:30.357Z,4.35
2023-02-17T14:33:25.460Z,4.23
2023-02-17T14:36:27.081Z,4.15
2023-02-17T14:39:16.598Z,4.15
2023-02-17T14:42:06.140Z,4.10
2023-02-17T14:44:55.234Z,4.08
2023-02-17T14:47:45.985Z,4.05
2023-02-17T14:50:35.356Z,4.03
2023-02-17T14:53:28.136Z,3.97
2023-02-17T14:56:34.354Z,3.92
2023-02-17T14:59:23.274Z,3.79
2023-02-17T15:02:19.355Z,3.74
2023-02-17T15:05:08.285Z,3.70
2023-02-17T15:07:58.603Z,3.64
2023-02-17T15:10:49.622Z,3.61
2023-02-17T15:13:38.511Z,3.55
2023-02-17T15:16:33.184Z,3.55
2023-02-17T15:19:22.104Z,3.59
2023-02-17T15:22:16.535Z,3.60
2023-02-17T15:25:14.498Z,3.58
2023-02-17T15:28:04.229Z,3.49
2023-02-17T15:30:54.856Z,3.44
2023-02-17T15:33:44.132Z,3.41
2023-02-17T15:36:33.152Z,3.42
2023-02-17T15:39:22.517Z,3.38
2023-02-17T15:42:14.316Z,3.40
2023-02-17T15:45:03.372Z,3.39
2023-02-17T15:47:58.216Z,3.36
2023-02-17T15:50:47.429Z,3.35
2023-02-17T15:53:37.141Z,3.38
2023-02-17T15:56:27.823Z,3.43
2023-02-17T15:59:19.575Z,3.43
2023-02-17T16:02:22.449Z,3.42
2023-02-17T16:05:14.641Z,3.46
2023-02-17T16:08:04.274Z,3.51
2023-02-17T16:10:55.720Z,3.54
2023-02-17T16:13:45.399Z,3.54
2023-02-17T16:16:34.238Z,3.54
2023-02-17T16:19:23.362Z,3.59
2023-02-17T16:22:12.356Z,3.59
2023-02-17T16:25:21.509Z,3.61
2023-02-17T16:28:20.665Z,3.60
2023-02-17T16:31:10.716Z,3.61
2023-02-17T16:34:00.517Z,3.61
2023-02-17T16:36:51.253Z,3.61
2023-02-17T16:39:40.211Z,3.60
2023-02-17T16:42:29.322Z,3.64
2023-02-17T16:45:19.933Z,3.63
2023-02-17T16:48:09.052Z,3.45
2023-02-17T16:51:03.154Z,3.44
2023-02-17T16:53:52.625Z,3.37
2023-02-17T16:56:48.530Z,3.37
2023-02-17T16:59:40.329Z,3.34
2023-02-17T17:02:29.336Z,3.31
2023-02-17T17:05:19.839Z,3.24
2023-02-17T17:08:16.584Z,3.20
2023-02-17T17:11:06.099Z,3.19
2023-02-17T17:13:55.483Z,3.20
2023-02-17T17:16:51.165Z,3.20
2023-02-17T17:19:40.329Z,3.16
2023-02-17T17:22:29.528Z,3.19
2023-02-17T17:25:19.176Z,3.25
2023-02-17T17:28:08.647Z,3.28
2023-02-17T17:30:57.513Z,3.33
2023-02-17T17:33:48.553Z,3.38
2023-02-17T17:36:46.654Z,3.38
2023-02-17T17:39:40.240Z,3.40
2023-02-17T17:42:29.355Z,3.42
2023-02-17T17:45:19.382Z,3.47
2023-02-17T17:48:13.976Z,3.43
2023-02-17T17:51:03.535Z,3.41
2023-02-17T17:53:53.033Z,3.45
2023-02-17T17:56:43.230Z,3.49
2023-02-17T17:59:34.072Z,3.49
2023-02-17T18:02:25.800Z,3.50
2023-02-17T18:05:14.754Z,3.49
2023-02-17T18:08:04.210Z,3.50
2023-02-17T18:10:53.238Z,3.46
2023-02-17T18:13:44.187Z,3.45
2023-02-17T18:16:33.367Z,3.42
2023-02-17T18:19:25.080Z,3.38
2023-02-17T18:22:14.524Z,3.42
2023-02-17T18:25:08.994Z,3.41
2023-02-17T18:27:58.225Z,3.40
2023-02-17T18:30:47.427Z,3.39
2023-02-17T18:33:38.077Z,3.40
2023-02-17T18:36:27.336Z,3.40
2023-02-17T18:39:18.333Z,3.36
2023-02-17T18:42:07.229Z,3.32
2023-02-17T18:44:56.866Z,3.26
2023-02-17T18:47:46.458Z,3.18
2023-02-17T18:50:36.058Z,3.22
2023-02-17T18:53:24.950Z,3.21
2023-02-17T18:56:17.098Z,3.17
2023-02-17T18:59:06.083Z,3.21
2023-02-17T19:01:55.047Z,3.27
2023-02-17T19:04:46.613Z,3.26
2023-02-17T19:07:35.796Z,3.25
2023-02-17T19:10:25.126Z,3.24
2023-02-17T19:13:13.960Z,3.23
2023-02-17T19:16:08.624Z,3.24
2023-02-17T19:18:57.932Z,3.22
2023-02-17T19:21:47.565Z,3.22
2023-02-17T19:24:37.242Z,3.11
2023-02-17T19:27:26.045Z,3.11
2023-02-17T19:30:15.247Z,3.11
2023-02-17T19:33:08.612Z,3.13
2023-02-17T19:35:59.682Z,3.11
2023-02-17T19:38:50.210Z,3.08
2023-02-17T19:41:39.090Z,3.13
2023-02-17T19:44:28.069Z,3.12
2023-02-17T19:47:16.970Z,3.14
2023-02-17T19:50:06.854Z,3.11
2023-02-17T19:52:55.811Z,3.06
2023-02-17T19:55:45.202Z,2.91
2023-02-17T19:58:36.539Z,2.90
2023-02-17T20:01:27.448Z,2.89
2023-02-17T20:04:16.765Z,2.78
2023-02-17T20:07:07.013Z,2.76
2023-02-17T20:09:59.415Z,2.79
2023-02-17T20:12:48.832Z,2.82
2023-02-17T20:15:37.638Z,2.83
2023-02-17T20:18:26.840Z,2.79
2023-02-17T20:21:24.061Z,2.75
2023-02-17T20:24:14.242Z,2.77
2023-02-17T20:27:03.464Z,2.78
2023-02-17T20:29:53.899Z,2.83
2023-02-17T20:32:42.815Z,2.81
2023-02-17T20:35:35.522Z,2.84
2023-02-17T20:38:25.846Z,2.84
2023-02-17T20:41:16.994Z,2.78
2023-02-17T20:44:06.510Z,2.73
2023-02-17T20:46:56.132Z,2.65
2023-02-17T20:49:45.305Z,2.64
2023-02-17T20:52:34.375Z,2.63
2023-02-17T20:55:47.401Z,2.71
2023-02-17T20:58:40.612Z,2.68
2023-02-17T21:01:32.362Z,2.74
2023-02-17T21:04:23.646Z,2.81
2023-02-17T21:07:12.898Z,2.81
2023-02-17T21:10:02.506Z,2.74
2023-02-17T21:12:51.810Z,2.73
2023-02-17T21:15:45.149Z,2.67
2023-02-17T21:18:35.874Z,2.71
2023-02-17T21:21:24.931Z,2.66
2023-02-17T21:24:14.326Z,2.65
2023-02-17T21:27:03.314Z,2.81
2023-02-17T21:29:52.225Z,2.84
2023-02-17T21:32:41.126Z,2.82
2023-02-17T21:35:30.210Z,2.84
2023-02-17T21:38:21.661Z,2.84
2023-02-17T21:41:13.414Z,2.85
2023-02-17T21:44:21.607Z,2.81
2023-02-17T21:47:10.528Z,2.79
2023-02-17T21:50:01.518Z,2.81
2023-02-17T21:52:56.863Z,2.85
2023-02-17T21:55:46.425Z,2.89
2023-02-17T21:58:35.547Z,2.83
2023-02-17T22:01:26.194Z,2.76
2023-02-17T22:04:15.517Z,2.78
2023-02-17T22:07:04.788Z,2.79
2023-02-17T22:09:54.033Z,2.80
2023-02-17T22:12:44.475Z,2.81
2023-02-17T22:15:34.240Z,2.79
2023-02-17T22:18:24.433Z,2.79
2023-02-17T22:21:14.092Z,2.84
2023-02-17T22:24:03.922Z,2.84
2023-02-17T22:26:53.168Z,2.77
2023-02-17T22:29:42.196Z,2.75
2023-02-17T22:33:36.680Z,2.79
2023-02-17T22:37:29.388Z,2.80
2023-02-17T22:41:24.703Z,2.78
2023-02-17T22:45:19.948Z,2.81
2023-02-17T22:49:13.291Z,2.81
2023-02-17T22:53:08.617Z,2.84
2023-02-17T22:57:05.612Z,2.95
2023-02-17T23:00:56.701Z,2.93
2023-02-17T23:04:51.225Z,2.94
2023-02-17T23:08:43.931Z,2.93
2023-02-17T23:12:38.000Z,2.97
2023-02-17T23:16:11.202Z,2.97
2023-02-17T23:20:02.944Z,2.96
2023-02-17T23:23:56.495Z,2.94
2023-02-17T23:27:49.435Z,2.97
2023-02-17T23:31:43.188Z,3.02
2023-02-17T23:35:35.415Z,3.01
2023-02-17T23:39:29.142Z,2.97
2023-02-17T23:43:20.985Z,3.00
2023-02-17T23:47:16.998Z,3.06
2023-02-17T23:51:09.145Z,3.04
2023-02-17T23:55:04.100Z,3.02
2023-02-17T23:58:56.207Z,3.01
